Wallaceton, Pennsylvania
Current Conditions -  °F | °C
As of 4:54 AM on Friday 19 Dec 2014 (Local Time) from KFIG Reporting Station
Overcast Overcast  
Wind Chill: 21°   Ceiling: 1500
Heat Index: 28°   Visibility: 10mi
Dew Point: 24°   Wind: 7mph
Humidity: 85%   Direction: 280°W
Pressure: 30.05"   Gusts: NA
Location:  40.96°N, 78.29°W
Report Text: KFIG 190954Z AUTO 28006KT 10SM OVC015 M02/M04 A3005 RMK AO2 SLP194 T10221044
Loading
Personal Weather Stations






























Interactive Weather Map New forecast layout! Learn more

10-Day Weather Forecast

Advertisements
Track Severe Weather on mobile